KLAS/LAS METAR and TAF weather

Enter ICAO airport designator
Station Type Date Time Source
KLAS METAR 2021/09/23 17:56 UTC NOAA

KLAS 231756Z 00000KT 10SM FEW140 SCT220 31/01 A2996 RMK AO2 SLP120 FU HZ DSNT ALQDS T03060011 10306 20228 50005


Station Type Date Time Source
KLAS Decoded METAR 2021/09/23 17:56 UTC NOAA

MCCARRAN INTERNATIONAL AIRPORT , NV, United States (KLAS) 36-07N 115-16W 636M
Sep 23, 2021 - 01:56 PM EDT / 2021.09.23 1756 UTC
Wind: Calm:0
Visibility: 10 mile(s):0
Sky conditions: partly cloudy
Temperature: 87.1 F (30.6 C)
Dew Point: 34.0 F (1.1 C)
Relative Humidity: 15%
Pressure (altimeter): 29.96 in. Hg (1014 hPa)
Pressure tendency: 0.01 inches (0.5 hPa) higher than three hours ago
ob: KLAS 231756Z 00000KT 10SM FEW140 SCT220 31/01 A2996 RMK AO2 SLP120 FU HZ DSNT ALQDS T03060011 10306 20228 50005
cycle: 18

Station Type Date Time Source
KLAS TAF 2021/09/23 18:30 UTC NOAA

TAF KLAS 231729Z 2318/2424 08007KT 6SM HZ SCT250
FM240300 25007KT 6SM HZ FEW250
FM240800 VRB05KT P6SM SCT150
FM241600 06006KT P6SM SCT150

Example: see airport list